Cordell Hull Observed Data For Previous 48 Hours

Caption
Day and Hour Reservoir Elevation (behind dam)* Tailwater Elevation (below dam)* Average Hourly Discharge*
1/15/2018 1 AM CST 501.21 445.61 7,710
1/15/2018 2 AM CST 501.20 445.90 7,755
1/15/2018 3 AM CST 501.19 446.09 7,785
1/15/2018 4 AM CST 501.02 448.92 16,470
1/15/2018 5 AM CST 500.76 452.16 26,850
1/15/2018 6 AM CST 500.64 453.04 27,540
1/15/2018 7 AM CST 500.48 453.58 27,960
1/15/2018 8 AM CST 500.34 453.94 28,260
1/15/2018 9 AM CST 500.35 452.75 18,360
1/15/2018 10 AM CST 500.36 452.16 18,100
1/15/2018 11 AM CST 500.42 450.42 8,650
1/15/2018 12 PM CST 500.49 449.49 8,450
1/15/2018 1 PM CST 500.42 449.12 8,390
1/15/2018 2 PM CST 500.49 448.89 8,330
1/15/2018 3 PM CST 500.56 448.66 8,270
1/15/2018 4 PM CST 500.54 448.54 8,250
1/15/2018 5 PM CST 500.59 448.29 8,205
1/15/2018 6 PM CST 500.60 448.20 8,190
1/15/2018 7 PM CST 500.59 448.09 8,175
1/15/2018 8 PM CST 500.61 448.01 8,160
1/15/2018 9 PM CST 500.63 447.93 8,145
1/15/2018 10 PM CST 500.65 447.85 8,130
1/15/2018 11 PM CST 500.68 447.78 8,115
1/16/2018 12 AM CST 500.71 447.81 8,115
1/16/2018 1 AM CST 500.97 446.27 0
1/16/2018 2 AM CST 501.01 445.71 0
1/16/2018 3 AM CST 501.04 445.34 0
1/16/2018 4 AM CST 501.02 447.22 7,940
1/16/2018 5 AM CST 501.00 447.40 7,980
1/16/2018 6 AM CST 500.89 449.79 16,860
1/16/2018 7 AM CST 500.64 452.94 27,480
1/16/2018 8 AM CST 500.58 453.68 27,960
1/16/2018 9 AM CST 500.48 454.28 28,380
1/16/2018 10 AM CST 500.58 454.28 18,880
1/16/2018 11 AM CST 500.70 450.70 8,650
1/16/2018 12 PM CST 500.69 450.19 8,550
1/16/2018 1 PM CST 500.84 448.04 0
1/16/2018 2 PM CST 500.95 447.25 0
1/16/2018 3 PM CST 501.03 446.73 0
1/16/2018 4 PM CST 501.14 446.24 0
1/16/2018 5 PM CST 501.01 447.51 8,000
1/16/2018 6 PM CST 500.87 449.97 16,940
1/16/2018 7 PM CST 500.72 453.02 27,480
1/16/2018 8 PM CST 500.60 453.80 28,020
1/16/2018 9 PM CST 500.48 454.28 28,380
1/16/2018 10 PM CST 500.32 454.52 28,650
1/16/2018 11 PM CST 500.52 452.82 18,320
1/17/2018 12 AM CST 500.59 450.59 8,650
1/17/2018 1 AM CST 500.75 448.55 0
1/17/2018 2 AM CST 500.80 447.50 0
1/17/2018 3 AM CST 500.93 446.83 0
1/17/2018 4 AM CST 500.84 448.04 8,130
1/17/2018 5 AM CST 500.78 450.48 17,180
1/17/2018 6 AM CST 500.73 450.93 17,380
1/17/2018 7 AM CST 500.69 451.29 17,540
1/17/2018 8 AM CST 500.61 451.41 17,620
1/17/2018 9 AM CST 500.53 451.53 17,700
1/17/2018 10 AM CST 500.49 451.59 17,750
1/17/2018 11 AM CST 500.44 451.84 17,900
1/17/2018 12 PM CST 500.62 450.02 8,530
1/17/2018 1 PM CST 500.62 449.62 8,450
1/17/2018 2 PM CST 500.63 449.43 8,410
1/17/2018 3 PM CST 500.77 449.17 8,330
1/17/2018 4 PM CST 500.76 449.06 8,310
1/17/2018 5 PM CST 500.80 448.90 8,270
1/17/2018 6 PM CST 500.61 450.61 17,300
1/17/2018 7 PM CST 500.37 453.37 27,900
1/17/2018 8 PM CST 500.28 454.08 28,380
1/17/2018 9 PM CST 500.17 454.47 28,725

Elevations are in feet above sea level. Discharges are in cubic feet per second and are reported at the end of the hour.